sensor_id;sensor_type;location;lat;lon;timestamp;pressure;altitude;pressure_sealevel;temperature
74043;BMP280;62384;53.600;10.040;2022-10-31T00:00:16;101279.50;;;13.52
74043;BMP280;62384;53.600;10.040;2022-10-31T00:02:42;101283.41;;;13.55
74043;BMP280;62384;53.600;10.040;2022-10-31T00:05:07;101277.19;;;13.32
74043;BMP280;62384;53.600;10.040;2022-10-31T00:07:33;101266.34;;;13.28
74043;BMP280;62384;53.600;10.040;2022-10-31T00:09:58;101267.47;;;13.27
74043;BMP280;62384;53.600;10.040;2022-10-31T00:12:23;101271.72;;;13.28
74043;BMP280;62384;53.600;10.040;2022-10-31T00:14:49;101269.03;;;13.28
74043;BMP280;62384;53.600;10.040;2022-10-31T00:17:14;101265.91;;;13.26
74043;BMP280;62384;53.600;10.040;2022-10-31T00:19:39;101270.16;;;13.27
74043;BMP280;62384;53.600;10.040;2022-10-31T00:22:04;101269.50;;;13.34
74043;BMP280;62384;53.600;10.040;2022-10-31T00:24:30;101251.00;;;13.32
74043;BMP280;62384;53.600;10.040;2022-10-31T00:26:55;101268.56;;;13.45
74043;BMP280;62384;53.600;10.040;2022-10-31T00:29:20;101271.34;;;13.49
74043;BMP280;62384;53.600;10.040;2022-10-31T00:31:45;101255.50;;;13.47
74043;BMP280;62384;53.600;10.040;2022-10-31T00:34:11;101272.06;;;13.46
74043;BMP280;62384;53.600;10.040;2022-10-31T00:36:41;101276.56;;;13.61
74043;BMP280;62384;53.600;10.040;2022-10-31T00:39:06;101280.34;;;13.56
74043;BMP280;62384;53.600;10.040;2022-10-31T00:41:32;101276.59;;;13.64
74043;BMP280;62384;53.600;10.040;2022-10-31T00:43:57;101291.34;;;13.70
74043;BMP280;62384;53.600;10.040;2022-10-31T00:46:23;101283.25;;;13.70
74043;BMP280;62384;53.600;10.040;2022-10-31T00:48:51;101287.59;;;13.75
74043;BMP280;62384;53.600;10.040;2022-10-31T00:51:16;101281.00;;;13.73
74043;BMP280;62384;53.600;10.040;2022-10-31T00:53:41;101269.41;;;13.72
74043;BMP280;62384;53.600;10.040;2022-10-31T00:56:10;101262.44;;;13.71
74043;BMP280;62384;53.600;10.040;2022-10-31T00:58:35;101263.56;;;13.70
74043;BMP280;62384;53.600;10.040;2022-10-31T01:01:01;101245.28;;;13.56
74043;BMP280;62384;53.600;10.040;2022-10-31T01:03:34;101287.78;;;13.63
74043;BMP280;62384;53.600;10.040;2022-10-31T01:06:08;101278.84;;;13.59
74043;BMP280;62384;53.600;10.040;2022-10-31T01:08:36;101262.06;;;13.46
74043;BMP280;62384;53.600;10.040;2022-10-31T01:11:11;101284.97;;;13.56
74043;BMP280;62384;53.600;10.040;2022-10-31T01:13:37;101271.16;;;13.61
74043;BMP280;62384;53.600;10.040;2022-10-31T01:16:04;101266.28;;;13.70
74043;BMP280;62384;53.600;10.040;2022-10-31T01:18:30;101273.78;;;13.80
74043;BMP280;62384;53.600;10.040;2022-10-31T01:21:00;101273.53;;;13.89
74043;BMP280;62384;53.600;10.040;2022-10-31T01:23:25;101273.81;;;14.06
74043;BMP280;62384;53.600;10.040;2022-10-31T01:25:59;101283.97;;;14.16
74043;BMP280;62384;53.600;10.040;2022-10-31T01:28:24;101269.38;;;14.21
74043;BMP280;62384;53.600;10.040;2022-10-31T01:30:49;101273.69;;;14.25
74043;BMP280;62384;53.600;10.040;2022-10-31T01:33:14;101268.47;;;14.39
74043;BMP280;62384;53.600;10.040;2022-10-31T01:35:40;101275.16;;;14.45
74043;BMP280;62384;53.600;10.040;2022-10-31T01:38:05;101281.00;;;14.51
74043;BMP280;62384;53.600;10.040;2022-10-31T01:40:31;101281.81;;;14.55
74043;BMP280;62384;53.600;10.040;2022-10-31T01:42:56;101287.63;;;14.57
74043;BMP280;62384;53.600;10.040;2022-10-31T01:45:21;101281.41;;;14.53
74043;BMP280;62384;53.600;10.040;2022-10-31T01:47:47;101280.19;;;14.80
74043;BMP280;62384;53.600;10.040;2022-10-31T01:50:24;101290.22;;;14.80
74043;BMP280;62384;53.600;10.040;2022-10-31T01:52:51;101296.44;;;14.80
74043;BMP280;62384;53.600;10.040;2022-10-31T01:55:20;101298.34;;;14.80
74043;BMP280;62384;53.600;10.040;2022-10-31T01:57:52;101305.41;;;14.88
74043;BMP280;62384;53.600;10.040;2022-10-31T02:00:19;101306.88;;;14.82
74043;BMP280;62384;53.600;10.040;2022-10-31T02:02:46;101309.25;;;14.87
74043;BMP280;62384;53.600;10.040;2022-10-31T02:05:15;101311.16;;;14.86
74043;BMP280;62384;53.600;10.040;2022-10-31T02:08:13;101323.13;;;14.82
74043;BMP280;62384;53.600;10.040;2022-10-31T02:10:40;101307.88;;;14.70
74043;BMP280;62384;53.600;10.040;2022-10-31T02:13:07;101296.66;;;14.68
74043;BMP280;62384;53.600;10.040;2022-10-31T02:15:33;101307.94;;;14.74
74043;BMP280;62384;53.600;10.040;2022-10-31T02:17:59;101307.88;;;14.70
74043;BMP280;62384;53.600;10.040;2022-10-31T02:20:29;101313.69;;;14.69
74043;BMP280;62384;53.600;10.040;2022-10-31T02:26:26;101310.16;;;14.65
74043;BMP280;62384;53.600;10.040;2022-10-31T02:32:04;101332.38;;;14.55
74043;BMP280;62384;53.600;10.040;2022-10-31T02:37:51;101333.31;;;14.39
74043;BMP280;62384;53.600;10.040;2022-10-31T02:40:27;101308.22;;;14.35
74043;BMP280;62384;53.600;10.040;2022-10-31T02:43:11;101319.66;;;14.55
74043;BMP280;62384;53.600;10.040;2022-10-31T02:45:50;101317.72;;;14.52
74043;BMP280;62384;53.600;10.040;2022-10-31T02:48:22;101317.75;;;14.56
74043;BMP280;62384;53.600;10.040;2022-10-31T02:50:56;101323.16;;;14.56
74043;BMP280;62384;53.600;10.040;2022-10-31T02:53:23;101321.53;;;14.51
74043;BMP280;62384;53.600;10.040;2022-10-31T02:56:06;101314.56;;;14.50
74043;BMP280;62384;53.600;10.040;2022-10-31T02:58:38;101327.56;;;14.41
74043;BMP280;62384;53.600;10.040;2022-10-31T03:01:07;101328.38;;;14.41
74043;BMP280;62384;53.600;10.040;2022-10-31T03:03:53;101324.22;;;14.51
74043;BMP280;62384;53.600;10.040;2022-10-31T03:06:35;101323.91;;;14.56
74043;BMP280;62384;53.600;10.040;2022-10-31T03:11:41;101342.78;;;14.52
74043;BMP280;62384;53.600;10.040;2022-10-31T03:14:17;101332.66;;;14.46
74043;BMP280;62384;53.600;10.040;2022-10-31T03:16:48;101338.78;;;14.43
74043;BMP280;62384;53.600;10.040;2022-10-31T03:19:26;101339.63;;;14.47
74043;BMP280;62384;53.600;10.040;2022-10-31T03:21:58;101303.41;;;14.25
74043;BMP280;62384;53.600;10.040;2022-10-31T03:24:30;101340.41;;;14.47
74043;BMP280;62384;53.600;10.040;2022-10-31T03:26:59;101350.44;;;14.47
74043;BMP280;62384;53.600;10.040;2022-10-31T03:29:28;101340.69;;;14.42
74043;BMP280;62384;53.600;10.040;2022-10-31T03:32:02;101356.56;;;14.44
74043;BMP280;62384;53.600;10.040;2022-10-31T03:34:31;101347.72;;;14.47
74043;BMP280;62384;53.600;10.040;2022-10-31T03:36:59;101353.56;;;14.49
74043;BMP280;62384;53.600;10.040;2022-10-31T03:39:27;101356.66;;;14.51
74043;BMP280;62384;53.600;10.040;2022-10-31T03:41:57;101345.38;;;14.42
74043;BMP280;62384;53.600;10.040;2022-10-31T03:44:23;101364.44;;;14.56
74043;BMP280;62384;53.600;10.040;2022-10-31T03:46:50;101381.25;;;14.98
74043;BMP280;62384;53.600;10.040;2022-10-31T03:49:16;101406.94;;;15.11
74043;BMP280;62384;53.600;10.040;2022-10-31T03:51:50;101378.75;;;14.57
74043;BMP280;62384;53.600;10.040;2022-10-31T03:54:24;101375.47;;;14.44
74043;BMP280;62384;53.600;10.040;2022-10-31T03:56:56;101375.09;;;14.42
74043;BMP280;62384;53.600;10.040;2022-10-31T03:59:39;101385.94;;;14.45
74043;BMP280;62384;53.600;10.040;2022-10-31T04:02:20;101388.19;;;14.43
74043;BMP280;62384;53.600;10.040;2022-10-31T04:04:48;101389.84;;;14.48
74043;BMP280;62384;53.600;10.040;2022-10-31T04:07:14;101399.00;;;14.43
74043;BMP280;62384;53.600;10.040;2022-10-31T04:09:43;101396.25;;;14.40
74043;BMP280;62384;53.600;10.040;2022-10-31T04:12:12;101391.56;;;14.37
74043;BMP280;62384;53.600;10.040;2022-10-31T04:14:41;101395.06;;;14.37
74043;BMP280;62384;53.600;10.040;2022-10-31T04:17:10;101398.84;;;14.33
74043;BMP280;62384;53.600;10.040;2022-10-31T04:19:41;101393.56;;;14.40
74043;BMP280;62384;53.600;10.040;2022-10-31T04:22:10;101401.91;;;14.31
74043;BMP280;62384;53.600;10.040;2022-10-31T04:24:42;101386.78;;;14.27
74043;BMP280;62384;53.600;10.040;2022-10-31T04:27:07;101398.78;;;14.29
74043;BMP280;62384;53.600;10.040;2022-10-31T04:29:32;101395.72;;;14.31
74043;BMP280;62384;53.600;10.040;2022-10-31T04:31:58;101397.97;;;14.25
74043;BMP280;62384;53.600;10.040;2022-10-31T04:34:23;101389.47;;;14.27
74043;BMP280;62384;53.600;10.040;2022-10-31T04:36:49;101397.38;;;14.35
74043;BMP280;62384;53.600;10.040;2022-10-31T04:39:14;101394.88;;;14.27
74043;BMP280;62384;53.600;10.040;2022-10-31T04:41:40;101411.16;;;14.30
74043;BMP280;62384;53.600;10.040;2022-10-31T04:44:05;101416.50;;;14.27
74043;BMP280;62384;53.600;10.040;2022-10-31T04:46:31;101412.84;;;14.38
74043;BMP280;62384;53.600;10.040;2022-10-31T04:48:56;101421.72;;;14.39
74043;BMP280;62384;53.600;10.040;2022-10-31T04:51:22;101403.25;;;14.18
74043;BMP280;62384;53.600;10.040;2022-10-31T04:53:50;101445.72;;;14.44
74043;BMP280;62384;53.600;10.040;2022-10-31T04:56:15;101459.97;;;14.41
74043;BMP280;62384;53.600;10.040;2022-10-31T04:58:40;101451.44;;;14.39
74043;BMP280;62384;53.600;10.040;2022-10-31T05:01:05;101451.47;;;14.42
74043;BMP280;62384;53.600;10.040;2022-10-31T05:03:31;101454.56;;;14.41
74043;BMP280;62384;53.600;10.040;2022-10-31T05:05:59;101444.28;;;14.27
74043;BMP280;62384;53.600;10.040;2022-10-31T05:08:25;101456.81;;;14.35
74043;BMP280;62384;53.600;10.040;2022-10-31T05:10:51;101445.91;;;14.32
74043;BMP280;62384;53.600;10.040;2022-10-31T05:13:17;101449.16;;;14.41
74043;BMP280;62384;53.600;10.040;2022-10-31T05:15:42;101449.88;;;14.38
74043;BMP280;62384;53.600;10.040;2022-10-31T05:18:07;101448.75;;;14.39
74043;BMP280;62384;53.600;10.040;2022-10-31T05:20:33;101457.66;;;14.43
74043;BMP280;62384;53.600;10.040;2022-10-31T05:23:01;101457.66;;;14.43
74043;BMP280;62384;53.600;10.040;2022-10-31T05:25:28;101454.50;;;14.37
74043;BMP280;62384;53.600;10.040;2022-10-31T05:27:55;101445.56;;;14.33
74043;BMP280;62384;53.600;10.040;2022-10-31T05:30:27;101454.50;;;14.37
74043;BMP280;62384;53.600;10.040;2022-10-31T05:32:52;101468.75;;;14.34
74043;BMP280;62384;53.600;10.040;2022-10-31T05:35:27;101456.84;;;14.39
74043;BMP280;62384;53.600;10.040;2022-10-31T05:38:07;101462.25;;;14.39
74043;BMP280;62384;53.600;10.040;2022-10-31T05:40:33;101464.25;;;14.42
74043;BMP280;62384;53.600;10.040;2022-10-31T05:42:58;101461.47;;;14.38
74043;BMP280;62384;53.600;10.040;2022-10-31T05:45:24;101451.09;;;14.40
74043;BMP280;62384;53.600;10.040;2022-10-31T05:47:51;101453.69;;;14.37
74043;BMP280;62384;53.600;10.040;2022-10-31T05:50:17;101456.47;;;14.40
74043;BMP280;62384;53.600;10.040;2022-10-31T05:52:42;101456.84;;;14.39
74043;BMP280;62384;53.600;10.040;2022-10-31T05:55:11;101452.56;;;14.38
74043;BMP280;62384;53.600;10.040;2022-10-31T05:57:36;101451.19;;;14.25
74043;BMP280;62384;53.600;10.040;2022-10-31T06:00:01;101458.72;;;14.35
74043;BMP280;62384;53.600;10.040;2022-10-31T06:02:28;101465.75;;;14.43
74043;BMP280;62384;53.600;10.040;2022-10-31T06:05:01;101460.03;;;14.44
74043;BMP280;62384;53.600;10.040;2022-10-31T06:07:27;101461.16;;;14.43
74043;BMP280;62384;53.600;10.040;2022-10-31T06:09:52;101469.13;;;14.36
74043;BMP280;62384;53.600;10.040;2022-10-31T06:12:17;101464.91;;;14.35
74043;BMP280;62384;53.600;10.040;2022-10-31T06:14:43;101462.09;;;14.28
74043;BMP280;62384;53.600;10.040;2022-10-31T06:17:08;101458.22;;;14.29
74043;BMP280;62384;53.600;10.040;2022-10-31T06:19:33;101462.00;;;14.25
74043;BMP280;62384;53.600;10.040;2022-10-31T06:21:58;101468.28;;;14.29
74043;BMP280;62384;53.600;10.040;2022-10-31T06:24:24;101469.44;;;14.31
74043;BMP280;62384;53.600;10.040;2022-10-31T06:26:49;101475.78;;;14.42
74043;BMP280;62384;53.600;10.040;2022-10-31T06:29:15;101476.97;;;14.41
74043;BMP280;62384;53.600;10.040;2022-10-31T06:31:40;101481.47;;;14.34
74043;BMP280;62384;53.600;10.040;2022-10-31T06:34:05;101473.31;;;14.30
74043;BMP280;62384;53.600;10.040;2022-10-31T06:36:30;101465.97;;;14.31
74043;BMP280;62384;53.600;10.040;2022-10-31T06:38:59;101453.38;;;14.38
74043;BMP280;62384;53.600;10.040;2022-10-31T06:41:25;101439.13;;;14.19
74043;BMP280;62384;53.600;10.040;2022-10-31T06:43:57;101466.09;;;14.38
74043;BMP280;62384;53.600;10.040;2022-10-31T06:46:23;101477.69;;;14.38
74043;BMP280;62384;53.600;10.040;2022-10-31T06:48:48;101476.91;;;14.38
74043;BMP280;62384;53.600;10.040;2022-10-31T06:51:13;101476.91;;;14.38
74043;BMP280;62384;53.600;10.040;2022-10-31T06:53:40;101486.38;;;14.51
74043;BMP280;62384;53.600;10.040;2022-10-31T06:56:05;101494.13;;;14.52
74043;BMP280;62384;53.600;10.040;2022-10-31T06:58:31;101511.63;;;14.59
74043;BMP280;62384;53.600;10.040;2022-10-31T07:01:01;101516.66;;;14.60
74043;BMP280;62384;53.600;10.040;2022-10-31T07:03:27;101514.13;;;14.48
74043;BMP280;62384;53.600;10.040;2022-10-31T07:05:55;101517.06;;;14.62
74043;BMP280;62384;53.600;10.040;2022-10-31T07:08:21;101524.41;;;14.62
74043;BMP280;62384;53.600;10.040;2022-10-31T07:10:52;101507.09;;;14.43
74043;BMP280;62384;53.600;10.040;2022-10-31T07:13:21;101529.75;;;14.58
74043;BMP280;62384;53.600;10.040;2022-10-31T07:16:03;101532.00;;;14.56
74043;BMP280;62384;53.600;10.040;2022-10-31T07:18:29;101532.31;;;14.51
74043;BMP280;62384;53.600;10.040;2022-10-31T07:20:54;101534.72;;;14.56
74043;BMP280;62384;53.600;10.040;2022-10-31T07:23:20;101548.66;;;14.58
74043;BMP280;62384;53.600;10.040;2022-10-31T07:25:46;101549.91;;;14.64
74043;BMP280;62384;53.600;10.040;2022-10-31T07:28:11;101557.28;;;14.67
74043;BMP280;62384;53.600;10.040;2022-10-31T07:30:37;101557.47;;;14.55
74043;BMP280;62384;53.600;10.040;2022-10-31T07:33:02;101553.75;;;14.63
74043;BMP280;62384;53.600;10.040;2022-10-31T07:35:29;101557.72;;;14.69
74043;BMP280;62384;53.600;10.040;2022-10-31T07:37:55;101559.34;;;14.74
74043;BMP280;62384;53.600;10.040;2022-10-31T07:40:28;101557.66;;;14.66
74043;BMP280;62384;53.600;10.040;2022-10-31T07:42:53;101558.38;;;14.63
74043;BMP280;62384;53.600;10.040;2022-10-31T07:45:20;101561.88;;;14.63
74043;BMP280;62384;53.600;10.040;2022-10-31T07:47:55;101561.03;;;14.59
74043;BMP280;62384;53.600;10.040;2022-10-31T07:50:29;101562.69;;;14.67
74043;BMP280;62384;53.600;10.040;2022-10-31T07:53:07;101567.28;;;14.63
74043;BMP280;62384;53.600;10.040;2022-10-31T07:55:33;101579.38;;;14.73
74043;BMP280;62384;53.600;10.040;2022-10-31T07:58:15;101586.75;;;14.72
74043;BMP280;62384;53.600;10.040;2022-10-31T08:00:48;101582.00;;;14.66
74043;BMP280;62384;53.600;10.040;2022-10-31T08:03:21;101583.94;;;14.65
74043;BMP280;62384;53.600;10.040;2022-10-31T08:05:46;101586.31;;;14.70
74043;BMP280;62384;53.600;10.040;2022-10-31T08:08:12;101590.53;;;14.68
74043;BMP280;62384;53.600;10.040;2022-10-31T08:10:38;101579.72;;;14.68
74043;BMP280;62384;53.600;10.040;2022-10-31T08:13:10;101584.00;;;14.69
74043;BMP280;62384;53.600;10.040;2022-10-31T08:15:36;101559.22;;;14.67
74043;BMP280;62384;53.600;10.040;2022-10-31T08:18:14;101559.22;;;14.67
74043;BMP280;62384;53.600;10.040;2022-10-31T08:20:40;101573.66;;;14.74
74043;BMP280;62384;53.600;10.040;2022-10-31T08:23:11;101572.63;;;14.82
74043;BMP280;62384;53.600;10.040;2022-10-31T08:25:37;101573.41;;;14.83
74043;BMP280;62384;53.600;10.040;2022-10-31T08:28:03;101567.81;;;14.72
74043;BMP280;62384;53.600;10.040;2022-10-31T08:30:30;101557.28;;;14.67
74043;BMP280;62384;53.600;10.040;2022-10-31T08:33:03;101559.34;;;14.74
74043;BMP280;62384;53.600;10.040;2022-10-31T08:35:29;101530.59;;;14.62
74043;BMP280;62384;53.600;10.040;2022-10-31T08:38:14;101565.84;;;14.92
74043;BMP280;62384;53.600;10.040;2022-10-31T08:40:41;101578.25;;;14.96
74043;BMP280;62384;53.600;10.040;2022-10-31T08:43:15;101576.66;;;14.95
74043;BMP280;62384;53.600;10.040;2022-10-31T08:46:03;101595.31;;;15.00
74043;BMP280;62384;53.600;10.040;2022-10-31T08:48:29;101616.09;;;14.96
74043;BMP280;62384;53.600;10.040;2022-10-31T08:50:56;101611.94;;;15.02
74043;BMP280;62384;53.600;10.040;2022-10-31T08:53:23;101602.06;;;14.87
74043;BMP280;62384;53.600;10.040;2022-10-31T08:55:48;101603.66;;;14.88
74043;BMP280;62384;53.600;10.040;2022-10-31T08:58:16;101593.63;;;14.92
74043;BMP280;62384;53.600;10.040;2022-10-31T09:00:42;101598.63;;;14.90
74043;BMP280;62384;53.600;10.040;2022-10-31T09:03:14;101602.41;;;14.86
74043;BMP280;62384;53.600;10.040;2022-10-31T09:05:40;101590.16;;;14.92
74043;BMP280;62384;53.600;10.040;2022-10-31T09:08:23;101591.44;;;14.98
74043;BMP280;62384;53.600;10.040;2022-10-31T09:10:48;101595.59;;;14.95
74043;BMP280;62384;53.600;10.040;2022-10-31T09:13:25;101600.31;;;14.98
74043;BMP280;62384;53.600;10.040;2022-10-31T09:16:00;101606.13;;;15.00
74043;BMP280;62384;53.600;10.040;2022-10-31T09:18:26;101610.53;;;15.12
74043;BMP280;62384;53.600;10.040;2022-10-31T09:20:59;101628.13;;;15.21
74043;BMP280;62384;53.600;10.040;2022-10-31T09:23:24;101612.19;;;15.16
74043;BMP280;62384;53.600;10.040;2022-10-31T09:25:53;101598.53;;;15.09
74043;BMP280;62384;53.600;10.040;2022-10-31T09:28:20;101609.41;;;15.13
74043;BMP280;62384;53.600;10.040;2022-10-31T09:30:48;101585.22;;;14.97
74043;BMP280;62384;53.600;10.040;2022-10-31T09:33:13;101609.97;;;14.99
74043;BMP280;62384;53.600;10.040;2022-10-31T09:35:40;101589.13;;;15.00
74043;BMP280;62384;53.600;10.040;2022-10-31T09:38:14;101599.25;;;15.06
74043;BMP280;62384;53.600;10.040;2022-10-31T09:43:25;101599.25;;;15.06
74043;BMP280;62384;53.600;10.040;2022-10-31T09:51:08;101601.25;;;15.09
74043;BMP280;62384;53.600;10.040;2022-10-31T09:53:40;101609.19;;;15.21
74043;BMP280;62384;53.600;10.040;2022-10-31T09:56:11;101653.97;;;15.45
74043;BMP280;62384;53.600;10.040;2022-10-31T09:58:59;101693.59;;;15.57
74043;BMP280;62384;53.600;10.040;2022-10-31T10:01:48;101723.50;;;15.64
74043;BMP280;62384;53.600;10.040;2022-10-31T10:04:38;101731.03;;;15.51
74043;BMP280;62384;53.600;10.040;2022-10-31T10:09:56;101721.25;;;15.43
74043;BMP280;62384;53.600;10.040;2022-10-31T10:12:55;101694.34;;;15.54
74043;BMP280;62384;53.600;10.040;2022-10-31T10:15:37;101689.59;;;15.47
74043;BMP280;62384;53.600;10.040;2022-10-31T10:21:05;101680.34;;;15.52
74043;BMP280;62384;53.600;10.040;2022-10-31T10:26:39;101700.53;;;15.54
74043;BMP280;62384;53.600;10.040;2022-10-31T10:29:22;101713.53;;;15.71
74043;BMP280;62384;53.600;10.040;2022-10-31T10:31:54;101716.41;;;15.82
74043;BMP280;62384;53.600;10.040;2022-10-31T10:34:28;101744.75;;;15.88
74043;BMP280;62384;53.600;10.040;2022-10-31T10:37:05;101768.97;;;16.03
74043;BMP280;62384;53.600;10.040;2022-10-31T10:39:53;101768.41;;;15.91
74043;BMP280;62384;53.600;10.040;2022-10-31T10:42:25;101757.59;;;15.68
74043;BMP280;62384;53.600;10.040;2022-10-31T10:45:19;101776.00;;;15.82
74043;BMP280;62384;53.600;10.040;2022-10-31T10:48:46;101784.59;;;15.87
74043;BMP280;62384;53.600;10.040;2022-10-31T10:51:45;101774.38;;;16.03
74043;BMP280;62384;53.600;10.040;2022-10-31T10:59:39;101779.47;;;16.08
74043;BMP280;62384;53.600;10.040;2022-10-31T11:02:16;101766.31;;;16.07
74043;BMP280;62384;53.600;10.040;2022-10-31T11:04:43;101802.09;;;16.20
74043;BMP280;62384;53.600;10.040;2022-10-31T11:07:10;101804.06;;;16.23
74043;BMP280;62384;53.600;10.040;2022-10-31T11:09:37;101798.75;;;16.30
74043;BMP280;62384;53.600;10.040;2022-10-31T11:12:09;101798.78;;;16.33
74043;BMP280;62384;53.600;10.040;2022-10-31T11:14:35;101800.66;;;16.29
74043;BMP280;62384;53.600;10.040;2022-10-31T11:17:34;101820.28;;;16.49
74043;BMP280;62384;53.600;10.040;2022-10-31T11:22:46;101822.25;;;16.52
74043;BMP280;62384;53.600;10.040;2022-10-31T11:25:23;101813.88;;;16.60
74043;BMP280;62384;53.600;10.040;2022-10-31T11:28:12;101814.63;;;16.61
74043;BMP280;62384;53.600;10.040;2022-10-31T11:30:59;101846.66;;;17.18
74043;BMP280;62384;53.600;10.040;2022-10-31T11:34:04;101875.97;;;17.86
74043;BMP280;62384;53.600;10.040;2022-10-31T11:36:43;101889.38;;;18.12
74043;BMP280;62384;53.600;10.040;2022-10-31T11:39:17;101878.66;;;17.79
74043;BMP280;62384;53.600;10.040;2022-10-31T11:41:45;101833.88;;;17.19
74043;BMP280;62384;53.600;10.040;2022-10-31T11:44:20;101868.25;;;17.08
74043;BMP280;62384;53.600;10.040;2022-10-31T11:46:49;101860.53;;;17.10
74043;BMP280;62384;53.600;10.040;2022-10-31T11:49:32;101862.81;;;17.08
74043;BMP280;62384;53.600;10.040;2022-10-31T11:52:06;101862.03;;;17.07
74043;BMP280;62384;53.600;10.040;2022-10-31T11:54:45;101872.09;;;17.03
74043;BMP280;62384;53.600;10.040;2022-10-31T11:57:43;101855.53;;;16.78
74043;BMP280;62384;53.600;10.040;2022-10-31T12:00:30;101844.38;;;16.87
74043;BMP280;62384;53.600;10.040;2022-10-31T12:03:18;101813.16;;;16.67
74043;BMP280;62384;53.600;10.040;2022-10-31T12:05:57;101804.47;;;16.54
74043;BMP280;62384;53.600;10.040;2022-10-31T12:08:30;101804.16;;;16.59
74043;BMP280;62384;53.600;10.040;2022-10-31T12:19:29;101840.41;;;17.14
74043;BMP280;62384;53.600;10.040;2022-10-31T12:25:17;101839.78;;;17.28
74043;BMP280;62384;53.600;10.040;2022-10-31T12:28:25;101846.31;;;17.23
74043;BMP280;62384;53.600;10.040;2022-10-31T12:40:01;101843.78;;;17.41
74043;BMP280;62384;53.600;10.040;2022-10-31T12:42:46;101862.59;;;17.63
74043;BMP280;62384;53.600;10.040;2022-10-31T12:45:52;101873.69;;;17.92
74043;BMP280;62384;53.600;10.040;2022-10-31T12:48:41;101883.41;;;17.92
74043;BMP280;62384;53.600;10.040;2022-10-31T12:56:56;101843.59;;;17.23
74043;BMP280;62384;53.600;10.040;2022-10-31T13:02:27;101829.41;;;16.96
74043;BMP280;62384;53.600;10.040;2022-10-31T13:05:04;101831.91;;;16.79
74043;BMP280;62384;53.600;10.040;2022-10-31T13:07:37;101814.38;;;16.73
74043;BMP280;62384;53.600;10.040;2022-10-31T13:12:41;101788.53;;;16.49
74043;BMP280;62384;53.600;10.040;2022-10-31T13:15:19;101783.75;;;16.39
74043;BMP280;62384;53.600;10.040;2022-10-31T13:18:04;101792.22;;;16.34
74043;BMP280;62384;53.600;10.040;2022-10-31T13:20:34;101786.72;;;16.27
74043;BMP280;62384;53.600;10.040;2022-10-31T13:23:16;101785.88;;;16.23
74043;BMP280;62384;53.600;10.040;2022-10-31T13:25:50;101770.25;;;16.13
74043;BMP280;62384;53.600;10.040;2022-10-31T13:31:23;101755.03;;;16.05
74043;BMP280;62384;53.600;10.040;2022-10-31T13:34:01;101737.97;;;16.04
74043;BMP280;62384;53.600;10.040;2022-10-31T13:36:35;101740.63;;;15.97
74043;BMP280;62384;53.600;10.040;2022-10-31T13:39:34;101724.19;;;16.13
74043;BMP280;62384;53.600;10.040;2022-10-31T13:42:20;101742.59;;;16.00
74043;BMP280;62384;53.600;10.040;2022-10-31T13:44:48;101746.59;;;16.10
74043;BMP280;62384;53.600;10.040;2022-10-31T13:47:40;101741.59;;;16.12
74043;BMP280;62384;53.600;10.040;2022-10-31T13:52:44;101737.75;;;16.13
74043;BMP280;62384;53.600;10.040;2022-10-31T13:55:36;101723.81;;;16.14
74043;BMP280;62384;53.600;10.040;2022-10-31T14:00:57;101726.00;;;16.05
74043;BMP280;62384;53.600;10.040;2022-10-31T14:03:24;101729.13;;;16.04
74043;BMP280;62384;53.600;10.040;2022-10-31T14:05:54;101725.31;;;16.12
74043;BMP280;62384;53.600;10.040;2022-10-31T14:08:21;101719.44;;;16.06
74043;BMP280;62384;53.600;10.040;2022-10-31T14:10:51;101705.47;;;16.01
74043;BMP280;62384;53.600;10.040;2022-10-31T14:13:30;101711.69;;;16.05
74043;BMP280;62384;53.600;10.040;2022-10-31T14:16:05;101698.88;;;16.02
74043;BMP280;62384;53.600;10.040;2022-10-31T14:19:04;101695.06;;;16.06
74043;BMP280;62384;53.600;10.040;2022-10-31T14:21:53;101696.78;;;16.22
74043;BMP280;62384;53.600;10.040;2022-10-31T14:29:44;101667.28;;;15.83
74043;BMP280;62384;53.600;10.040;2022-10-31T14:34:43;101656.03;;;15.81
74043;BMP280;62384;53.600;10.040;2022-10-31T14:37:38;101658.56;;;15.97
74043;BMP280;62384;53.600;10.040;2022-10-31T14:40:23;101652.69;;;15.91
74043;BMP280;62384;53.600;10.040;2022-10-31T14:43:19;101643.69;;;15.84
74043;BMP280;62384;53.600;10.040;2022-10-31T14:51:36;101591.84;;;15.85
74043;BMP280;62384;53.600;10.040;2022-10-31T14:54:12;101574.47;;;15.86
74043;BMP280;62384;53.600;10.040;2022-10-31T14:56:48;101579.00;;;15.79
74043;BMP280;62384;53.600;10.040;2022-10-31T14:59:19;101582.81;;;15.71
74043;BMP280;62384;53.600;10.040;2022-10-31T15:02:22;101586.97;;;15.65
74043;BMP280;62384;53.600;10.040;2022-10-31T15:04:52;101590.00;;;15.60
74043;BMP280;62384;53.600;10.040;2022-10-31T15:07:23;101596.66;;;15.66
74043;BMP280;62384;53.600;10.040;2022-10-31T15:10:06;101600.53;;;15.68
74043;BMP280;62384;53.600;10.040;2022-10-31T15:12:33;101580.66;;;15.54
74043;BMP280;62384;53.600;10.040;2022-10-31T15:15:19;101568.25;;;15.53
74043;BMP280;62384;53.600;10.040;2022-10-31T15:17:53;101565.97;;;15.55
74043;BMP280;62384;53.600;10.040;2022-10-31T15:20:25;101557.66;;;15.41
74043;BMP280;62384;53.600;10.040;2022-10-31T15:22:52;101542.84;;;15.31
74043;BMP280;62384;53.600;10.040;2022-10-31T15:25:20;101549.44;;;15.34
74043;BMP280;62384;53.600;10.040;2022-10-31T15:27:48;101560.19;;;15.30
74043;BMP280;62384;53.600;10.040;2022-10-31T15:30:22;101571.13;;;15.37
74043;BMP280;62384;53.600;10.040;2022-10-31T15:32:48;101558.28;;;15.30
74043;BMP280;62384;53.600;10.040;2022-10-31T15:35:25;101547.34;;;15.23
74043;BMP280;62384;53.600;10.040;2022-10-31T15:37:55;101545.00;;;15.22
74043;BMP280;62384;53.600;10.040;2022-10-31T15:40:24;101534.91;;;15.19